»·PEaware :: JBU816 KLAS-KLGB

JBU816 :: KLAS-KLGB

FLIGHT INFORMATION

Flight Status: Arrived
Operator:
JetBlue Airways
More flights by this operator :: More flights under this callsign
Pilot: Anonymous 7386 (7386)
Aircraft: AIRBUS A320
(A320)
More flights by this aircraft type
Origin: KLAS McCarran Intl
United States
Destination: KLGB Long Beach
United States
More flights between these airports :: More routes between these airports
Route: +BOACH8 WHIGG FEYLA DSNEE4
File this flight plan on PilotEdge
Remarks:
Altitude:
(Current/Filed)
30,000ft
Speed:
(Current/Filed)
455kts
Departed: 19-May-20 03:47 PM
Arrived: 19-May-20 04:34 PM
Distance/Time
Traveled:
200nm/0:47
Distance/Time
To Go:
Arrived

Flight Plot

Page will automatically refresh every two minutes.


Map Options




Map Legend


Flown Route
Filed Route
Departure Airport
Arrival Airport
Navaid (VOR, NDB)
Fix

Horizontal Profiles

Position Reports

Time Latitude Longitude Heading Altitude Ground
Speed
19-May-20 15:09 36.085357 -115.137910 0 2120ft 0kts
19-May-20 15:10 36.085357 -115.137910 0 2120ft 0kts
19-May-20 15:11 36.085357 -115.137910 0 2120ft 0kts
19-May-20 15:12 36.085357 -115.137910 0 2120ft 0kts
19-May-20 15:12 36.085357 -115.137910 0 2120ft 0kts
19-May-20 15:14 36.085357 -115.137910 0 2120ft 0kts
19-May-20 15:15 36.085357 -115.137910 0 2120ft 0kts
19-May-20 15:15 36.085357 -115.137910 0 2120ft 0kts
19-May-20 15:16 36.085357 -115.137910 0 2120ft 0kts
19-May-20 15:18 36.085357 -115.137910 0 2120ft 0kts
19-May-20 15:18 36.085357 -115.137910 0 2120ft 0kts
19-May-20 15:19 36.085357 -115.137910 0 2120ft 0kts
19-May-20 15:20 36.085357 -115.137910 0 2120ft 0kts
19-May-20 15:21 36.085357 -115.137910 0 2120ft 0kts
19-May-20 15:22 36.085357 -115.137910 0 2120ft 0kts
19-May-20 15:23 36.085357 -115.137910 0 2120ft 0kts
19-May-20 15:24 36.085357 -115.137910 0 2120ft 0kts
19-May-20 15:25 36.085357 -115.137910 0 2120ft 0kts
19-May-20 15:26 36.085357 -115.137910 0 2120ft 0kts
19-May-20 15:27 36.085357 -115.137910 0 2120ft 0kts
19-May-20 15:28 36.085357 -115.137910 0 2120ft 0kts
19-May-20 15:29 36.085357 -115.137910 0 2120ft 0kts
19-May-20 15:30 36.085357 -115.137910 0 2120ft 0kts
19-May-20 15:31 36.085357 -115.137910 0 2120ft 0kts
19-May-20 15:32 36.085357 -115.137910 0 2120ft 0kts
19-May-20 15:33 36.085356 -115.137910 0 2120ft 0kts
19-May-20 15:34 36.084913 -115.137895 0 2120ft 1kts
19-May-20 15:35 36.084692 -115.137561 269 2120ft 0kts
19-May-20 15:36 36.084692 -115.137561 269 2120ft 0kts
19-May-20 15:37 36.084636 -115.138396 266 2120ft 7kts
19-May-20 15:38 36.083913 -115.141191 224 2120ft 10kts
19-May-20 15:39 36.081270 -115.142439 182 2120ft 12kts
19-May-20 15:40 36.078259 -115.141607 89 2120ft 12kts
19-May-20 15:41 36.078262 -115.136973 89 2120ft 14kts
19-May-20 15:42 36.078273 -115.131926 89 2120ft 15kts
19-May-20 15:43 36.078276 -115.126423 89 2120ft 15kts
19-May-20 15:44 36.077735 -115.121890 128 2120ft 10kts
19-May-20 15:45 36.077474 -115.121504 135 2120ft 0kts
19-May-20 15:46 36.076432 -115.123791 270 2120ft 58kts
19-May-20 15:47 36.077465 -115.174834 267 4199ft 179kts
19-May-20 15:48 36.069811 -115.247497 234 6773ft 252kts
19-May-20 15:49 36.004419 -115.287649 201 7021ft 268kts
19-May-20 15:50 35.931289 -115.307018 187 7616ft 277kts
19-May-20 15:51 35.852839 -115.314811 180 10958ft 298kts
19-May-20 15:52 35.760621 -115.304413 176 13192ft 348kts
19-May-20 15:53 35.666922 -115.314272 214 16147ft 348kts
19-May-20 15:54 35.599469 -115.400991 225 18774ft 354kts
19-May-20 15:55 35.533286 -115.489685 224 21354ft 351kts
19-May-20 15:56 35.467687 -115.577950 223 23579ft 350kts
19-May-20 15:57 35.402505 -115.665774 223 25367ft 354kts
19-May-20 15:58 35.334114 -115.757665 223 26945ft 361kts
19-May-20 15:59 35.265753 -115.849273 223 28363ft 366kts
19-May-20 16:00 35.195875 -115.940433 222 29715ft 367kts
19-May-20 16:01 35.125513 -116.029177 223 29964ft 364kts
19-May-20 16:02 35.054638 -116.118350 223 29977ft 367kts
19-May-20 16:03 34.983503 -116.207630 224 29984ft 367kts
19-May-20 16:04 34.913708 -116.294947 224 29525ft 345kts
19-May-20 16:05 34.846626 -116.379638 225 28770ft 340kts
19-May-20 16:06 34.782549 -116.461320 225 27300ft 335kts
19-May-20 16:07 34.719288 -116.541703 226 25709ft 325kts
19-May-20 16:08 34.653150 -116.614023 220 24042ft 317kts
19-May-20 16:09 34.585431 -116.680297 220 22370ft 317kts
19-May-20 16:10 34.516374 -116.747729 220 20674ft 316kts
19-May-20 16:11 34.451813 -116.820487 224 18984ft 317kts
19-May-20 16:12 34.387646 -116.894903 224 17247ft 323kts
19-May-20 16:13 34.322676 -116.970030 224 15518ft 324kts
19-May-20 16:14 34.255331 -117.042047 213 13967ft 326kts
19-May-20 16:15 34.177464 -117.098022 211 13128ft 322kts
19-May-20 16:16 34.097076 -117.142297 206 12644ft 317kts
19-May-20 16:17 34.016629 -117.185394 206 12183ft 318kts
19-May-20 16:18 33.953676 -117.256011 231 10320ft 290kts
19-May-20 16:19 33.904342 -117.325394 232 9524ft 270kts
19-May-20 16:20 33.857834 -117.391181 231 8442ft 245kts
19-May-20 16:21 33.815596 -117.455530 251 8038ft 244kts
19-May-20 16:22 33.802295 -117.532939 289 7638ft 241kts
19-May-20 16:23 33.817808 -117.611401 282 6904ft 241kts
19-May-20 16:24 33.831723 -117.687360 282 6106ft 228kts
19-May-20 16:25 33.845867 -117.761414 280 5300ft 228kts
19-May-20 16:26 33.824662 -117.831110 242 4387ft 225kts
19-May-20 16:27 33.798343 -117.894191 242 3549ft 202kts
19-May-20 16:28 33.773966 -117.955120 245 2979ft 195kts
19-May-20 16:29 33.755126 -118.014117 249 2708ft 186kts
19-May-20 16:30 33.752560 -118.073357 307 1999ft 186kts
19-May-20 16:31 33.785731 -118.112251 309 832ft 133kts
19-May-20 16:32 33.809562 -118.141385 310 141ft 118kts
19-May-20 16:33 33.821611 -118.154848 74 69ft 15kts
19-May-20 16:34 33.821648 -118.154076 89 69ft 0kts
19-May-20 16:35 33.821636 -118.152230 90 69ft 10kts
19-May-20 16:36 33.821637 -118.148400 89 69ft 10kts
19-May-20 16:37 33.820176 -118.146349 88 69ft 5kts
19-May-20 16:38 33.820179 -118.146107 89 69ft 0kts
19-May-20 16:39 33.820179 -118.146107 89 69ft 0kts

Navigation Log

Ident Type
Flight plan parsing failed, navigation log unavailable